sensor_id;sensor_type;location;lat;lon;timestamp;P1;durP1;ratioP1;P2;durP2;ratioP2
5277;SDS011;2662;51.194;6.614;2022-12-19T00:00:20;38.08;;;16.05;;
5277;SDS011;2662;51.194;6.614;2022-12-19T00:02:47;36.03;;;15.80;;
5277;SDS011;2662;51.194;6.614;2022-12-19T00:05:14;35.97;;;15.33;;
5277;SDS011;2662;51.194;6.614;2022-12-19T00:07:41;37.50;;;15.30;;
5277;SDS011;2662;51.194;6.614;2022-12-19T00:10:07;37.38;;;14.75;;
5277;SDS011;2662;51.194;6.614;2022-12-19T00:12:34;31.98;;;13.75;;
5277;SDS011;2662;51.194;6.614;2022-12-19T00:15:03;35.70;;;16.10;;
5277;SDS011;2662;51.194;6.614;2022-12-19T00:17:30;29.03;;;13.80;;
5277;SDS011;2662;51.194;6.614;2022-12-19T00:19:57;40.33;;;15.32;;
5277;SDS011;2662;51.194;6.614;2022-12-19T00:22:24;33.40;;;14.30;;
5277;SDS011;2662;51.194;6.614;2022-12-19T00:24:51;43.63;;;16.17;;
5277;SDS011;2662;51.194;6.614;2022-12-19T00:27:17;38.25;;;15.25;;
5277;SDS011;2662;51.194;6.614;2022-12-19T00:29:44;36.73;;;13.30;;
5277;SDS011;2662;51.194;6.614;2022-12-19T00:32:12;38.65;;;15.80;;
5277;SDS011;2662;51.194;6.614;2022-12-19T00:34:39;36.37;;;13.70;;
5277;SDS011;2662;51.194;6.614;2022-12-19T00:37:06;38.57;;;15.40;;
5277;SDS011;2662;51.194;6.614;2022-12-19T00:39:32;35.50;;;14.07;;
5277;SDS011;2662;51.194;6.614;2022-12-19T00:41:59;38.17;;;14.88;;
5277;SDS011;2662;51.194;6.614;2022-12-19T00:44:26;42.03;;;15.20;;
5277;SDS011;2662;51.194;6.614;2022-12-19T00:46:52;38.13;;;14.37;;
5277;SDS011;2662;51.194;6.614;2022-12-19T00:49:20;36.07;;;15.17;;
5277;SDS011;2662;51.194;6.614;2022-12-19T00:51:47;40.47;;;14.07;;
5277;SDS011;2662;51.194;6.614;2022-12-19T00:54:14;37.83;;;15.60;;
5277;SDS011;2662;51.194;6.614;2022-12-19T00:56:41;35.28;;;15.25;;
5277;SDS011;2662;51.194;6.614;2022-12-19T00:59:08;44.37;;;15.57;;
5277;SDS011;2662;51.194;6.614;2022-12-19T01:01:36;36.15;;;15.77;;
5277;SDS011;2662;51.194;6.614;2022-12-19T01:04:04;36.77;;;14.77;;
5277;SDS011;2662;51.194;6.614;2022-12-19T01:06:34;35.93;;;14.97;;
5277;SDS011;2662;51.194;6.614;2022-12-19T01:09:00;37.17;;;15.70;;
5277;SDS011;2662;51.194;6.614;2022-12-19T01:11:27;41.57;;;15.40;;
5277;SDS011;2662;51.194;6.614;2022-12-19T01:14:08;38.83;;;14.27;;
5277;SDS011;2662;51.194;6.614;2022-12-19T01:16:35;36.93;;;15.00;;
5277;SDS011;2662;51.194;6.614;2022-12-19T01:19:02;36.47;;;15.37;;
5277;SDS011;2662;51.194;6.614;2022-12-19T01:21:28;38.17;;;16.37;;
5277;SDS011;2662;51.194;6.614;2022-12-19T01:23:56;34.60;;;14.70;;
5277;SDS011;2662;51.194;6.614;2022-12-19T01:26:23;36.70;;;14.37;;
5277;SDS011;2662;51.194;6.614;2022-12-19T01:28:50;42.63;;;15.87;;
5277;SDS011;2662;51.194;6.614;2022-12-19T01:31:16;34.00;;;14.83;;
5277;SDS011;2662;51.194;6.614;2022-12-19T01:33:43;41.17;;;15.77;;
5277;SDS011;2662;51.194;6.614;2022-12-19T01:36:10;33.93;;;13.73;;
5277;SDS011;2662;51.194;6.614;2022-12-19T01:38:36;40.07;;;16.30;;
5277;SDS011;2662;51.194;6.614;2022-12-19T01:41:05;35.33;;;14.90;;
5277;SDS011;2662;51.194;6.614;2022-12-19T01:43:32;36.47;;;14.53;;
5277;SDS011;2662;51.194;6.614;2022-12-19T01:46:14;35.77;;;13.63;;
5277;SDS011;2662;51.194;6.614;2022-12-19T01:48:51;39.90;;;15.60;;
5277;SDS011;2662;51.194;6.614;2022-12-19T01:51:19;33.27;;;14.83;;
5277;SDS011;2662;51.194;6.614;2022-12-19T01:53:48;39.63;;;15.20;;
5277;SDS011;2662;51.194;6.614;2022-12-19T01:56:25;34.90;;;14.30;;
5277;SDS011;2662;51.194;6.614;2022-12-19T01:58:55;32.33;;;13.30;;
5277;SDS011;2662;51.194;6.614;2022-12-19T02:01:25;38.97;;;14.97;;
5277;SDS011;2662;51.194;6.614;2022-12-19T02:03:52;31.90;;;13.63;;
5277;SDS011;2662;51.194;6.614;2022-12-19T02:06:21;36.13;;;13.67;;
5277;SDS011;2662;51.194;6.614;2022-12-19T02:08:49;38.43;;;16.17;;
5277;SDS011;2662;51.194;6.614;2022-12-19T02:11:16;35.43;;;13.90;;
5277;SDS011;2662;51.194;6.614;2022-12-19T02:13:44;36.40;;;14.93;;
5277;SDS011;2662;51.194;6.614;2022-12-19T02:16:13;34.37;;;13.87;;
5277;SDS011;2662;51.194;6.614;2022-12-19T02:18:47;31.30;;;13.57;;
5277;SDS011;2662;51.194;6.614;2022-12-19T02:21:21;30.50;;;12.60;;
5277;SDS011;2662;51.194;6.614;2022-12-19T02:27:05;38.37;;;14.40;;
5277;SDS011;2662;51.194;6.614;2022-12-19T02:29:52;35.57;;;14.20;;
5277;SDS011;2662;51.194;6.614;2022-12-19T02:32:33;40.87;;;16.30;;
5277;SDS011;2662;51.194;6.614;2022-12-19T02:35:08;36.70;;;12.90;;
5277;SDS011;2662;51.194;6.614;2022-12-19T02:37:43;40.33;;;14.90;;
5277;SDS011;2662;51.194;6.614;2022-12-19T02:40:14;39.97;;;15.30;;
5277;SDS011;2662;51.194;6.614;2022-12-19T02:42:45;39.00;;;15.13;;
5277;SDS011;2662;51.194;6.614;2022-12-19T02:45:15;36.67;;;14.53;;
5277;SDS011;2662;51.194;6.614;2022-12-19T02:47:46;38.40;;;16.43;;
5277;SDS011;2662;51.194;6.614;2022-12-19T02:50:13;42.83;;;15.40;;
5277;SDS011;2662;51.194;6.614;2022-12-19T02:52:42;30.97;;;12.30;;
5277;SDS011;2662;51.194;6.614;2022-12-19T02:55:11;38.10;;;14.20;;
5277;SDS011;2662;51.194;6.614;2022-12-19T02:57:43;36.60;;;14.23;;
5277;SDS011;2662;51.194;6.614;2022-12-19T03:00:21;37.50;;;14.50;;
5277;SDS011;2662;51.194;6.614;2022-12-19T03:02:53;36.23;;;14.60;;
5277;SDS011;2662;51.194;6.614;2022-12-19T03:05:24;43.50;;;17.47;;
5277;SDS011;2662;51.194;6.614;2022-12-19T03:07:57;36.80;;;15.30;;
5277;SDS011;2662;51.194;6.614;2022-12-19T03:10:32;34.80;;;14.80;;
5277;SDS011;2662;51.194;6.614;2022-12-19T03:13:04;29.57;;;14.17;;
5277;SDS011;2662;51.194;6.614;2022-12-19T03:15:36;39.33;;;13.10;;
5277;SDS011;2662;51.194;6.614;2022-12-19T03:18:05;36.80;;;13.67;;
5277;SDS011;2662;51.194;6.614;2022-12-19T03:20:35;35.73;;;15.10;;
5277;SDS011;2662;51.194;6.614;2022-12-19T03:23:09;41.90;;;16.10;;
5277;SDS011;2662;51.194;6.614;2022-12-19T03:25:36;36.90;;;15.40;;
5277;SDS011;2662;51.194;6.614;2022-12-19T03:28:06;32.60;;;14.23;;
5277;SDS011;2662;51.194;6.614;2022-12-19T03:30:38;35.50;;;14.93;;
5277;SDS011;2662;51.194;6.614;2022-12-19T03:33:07;35.47;;;14.03;;
5277;SDS011;2662;51.194;6.614;2022-12-19T03:35:35;34.17;;;15.47;;
5277;SDS011;2662;51.194;6.614;2022-12-19T03:38:04;33.73;;;13.53;;
5277;SDS011;2662;51.194;6.614;2022-12-19T03:40:32;37.37;;;15.10;;
5277;SDS011;2662;51.194;6.614;2022-12-19T03:43:01;36.07;;;15.10;;
5277;SDS011;2662;51.194;6.614;2022-12-19T03:45:35;33.23;;;14.80;;
5277;SDS011;2662;51.194;6.614;2022-12-19T03:48:12;39.93;;;15.70;;
5277;SDS011;2662;51.194;6.614;2022-12-19T03:50:44;29.23;;;14.23;;
5277;SDS011;2662;51.194;6.614;2022-12-19T03:53:19;37.80;;;14.23;;
5277;SDS011;2662;51.194;6.614;2022-12-19T03:55:57;38.03;;;15.63;;
5277;SDS011;2662;51.194;6.614;2022-12-19T03:58:31;34.70;;;14.53;;
5277;SDS011;2662;51.194;6.614;2022-12-19T04:01:00;29.87;;;14.47;;
5277;SDS011;2662;51.194;6.614;2022-12-19T04:03:31;41.47;;;15.67;;
5277;SDS011;2662;51.194;6.614;2022-12-19T04:05:58;38.07;;;16.60;;
5277;SDS011;2662;51.194;6.614;2022-12-19T04:08:26;44.87;;;16.97;;
5277;SDS011;2662;51.194;6.614;2022-12-19T04:10:57;33.87;;;13.93;;
5277;SDS011;2662;51.194;6.614;2022-12-19T04:13:30;39.40;;;15.70;;
5277;SDS011;2662;51.194;6.614;2022-12-19T04:16:02;38.30;;;15.50;;
5277;SDS011;2662;51.194;6.614;2022-12-19T04:18:37;40.73;;;15.53;;
5277;SDS011;2662;51.194;6.614;2022-12-19T04:21:10;35.60;;;13.67;;
5277;SDS011;2662;51.194;6.614;2022-12-19T04:23:40;48.60;;;15.50;;
5277;SDS011;2662;51.194;6.614;2022-12-19T04:26:11;38.77;;;14.60;;
5277;SDS011;2662;51.194;6.614;2022-12-19T04:28:42;38.17;;;14.40;;
5277;SDS011;2662;51.194;6.614;2022-12-19T04:31:12;45.97;;;16.60;;
5277;SDS011;2662;51.194;6.614;2022-12-19T04:33:41;43.63;;;16.27;;
5277;SDS011;2662;51.194;6.614;2022-12-19T04:36:08;38.43;;;15.10;;
5277;SDS011;2662;51.194;6.614;2022-12-19T04:38:35;37.20;;;15.17;;
5277;SDS011;2662;51.194;6.614;2022-12-19T04:41:02;36.80;;;15.90;;
5277;SDS011;2662;51.194;6.614;2022-12-19T04:43:29;36.50;;;15.50;;
5277;SDS011;2662;51.194;6.614;2022-12-19T04:45:56;38.00;;;15.93;;
5277;SDS011;2662;51.194;6.614;2022-12-19T04:48:23;46.80;;;17.00;;
5277;SDS011;2662;51.194;6.614;2022-12-19T04:50:51;45.90;;;17.00;;
5277;SDS011;2662;51.194;6.614;2022-12-19T04:53:18;48.00;;;16.97;;
5277;SDS011;2662;51.194;6.614;2022-12-19T04:55:44;44.80;;;16.57;;
5277;SDS011;2662;51.194;6.614;2022-12-19T04:58:11;39.57;;;16.60;;
5277;SDS011;2662;51.194;6.614;2022-12-19T05:00:38;42.03;;;16.87;;
5277;SDS011;2662;51.194;6.614;2022-12-19T05:03:05;41.53;;;16.77;;
5277;SDS011;2662;51.194;6.614;2022-12-19T05:05:31;37.07;;;15.07;;
5277;SDS011;2662;51.194;6.614;2022-12-19T05:07:59;53.20;;;16.60;;
5277;SDS011;2662;51.194;6.614;2022-12-19T05:10:26;38.47;;;17.30;;
5277;SDS011;2662;51.194;6.614;2022-12-19T05:12:53;40.23;;;15.70;;
5277;SDS011;2662;51.194;6.614;2022-12-19T05:15:20;39.23;;;14.87;;
5277;SDS011;2662;51.194;6.614;2022-12-19T05:17:46;44.53;;;16.20;;
5277;SDS011;2662;51.194;6.614;2022-12-19T05:20:13;44.20;;;18.03;;
5277;SDS011;2662;51.194;6.614;2022-12-19T05:22:40;43.50;;;16.00;;
5277;SDS011;2662;51.194;6.614;2022-12-19T05:25:08;41.33;;;16.67;;
5277;SDS011;2662;51.194;6.614;2022-12-19T05:27:35;50.33;;;18.20;;
5277;SDS011;2662;51.194;6.614;2022-12-19T05:30:02;42.60;;;17.20;;
5277;SDS011;2662;51.194;6.614;2022-12-19T05:32:29;46.23;;;17.60;;
5277;SDS011;2662;51.194;6.614;2022-12-19T05:34:57;52.67;;;17.87;;
5277;SDS011;2662;51.194;6.614;2022-12-19T05:37:24;41.77;;;16.90;;
5277;SDS011;2662;51.194;6.614;2022-12-19T05:39:51;41.93;;;16.73;;
5277;SDS011;2662;51.194;6.614;2022-12-19T05:42:19;37.43;;;16.80;;
5277;SDS011;2662;51.194;6.614;2022-12-19T05:44:46;49.87;;;18.10;;
5277;SDS011;2662;51.194;6.614;2022-12-19T05:47:12;43.80;;;18.10;;
5277;SDS011;2662;51.194;6.614;2022-12-19T05:49:39;40.93;;;16.63;;
5277;SDS011;2662;51.194;6.614;2022-12-19T05:52:06;41.37;;;17.70;;
5277;SDS011;2662;51.194;6.614;2022-12-19T05:54:33;48.70;;;17.80;;
5277;SDS011;2662;51.194;6.614;2022-12-19T05:56:59;36.00;;;15.60;;
5277;SDS011;2662;51.194;6.614;2022-12-19T05:59:27;46.78;;;17.88;;
5277;SDS011;2662;51.194;6.614;2022-12-19T06:01:54;35.13;;;14.93;;
5277;SDS011;2662;51.194;6.614;2022-12-19T06:04:21;38.70;;;16.37;;
5277;SDS011;2662;51.194;6.614;2022-12-19T06:06:47;39.10;;;16.70;;
5277;SDS011;2662;51.194;6.614;2022-12-19T06:09:14;45.40;;;16.63;;
5277;SDS011;2662;51.194;6.614;2022-12-19T06:11:41;42.27;;;18.70;;
5277;SDS011;2662;51.194;6.614;2022-12-19T06:14:07;42.37;;;17.03;;
5277;SDS011;2662;51.194;6.614;2022-12-19T06:16:35;41.00;;;16.47;;
5277;SDS011;2662;51.194;6.614;2022-12-19T06:19:02;41.30;;;16.53;;
5277;SDS011;2662;51.194;6.614;2022-12-19T06:21:29;39.00;;;16.87;;
5277;SDS011;2662;51.194;6.614;2022-12-19T06:23:55;42.07;;;16.37;;
5277;SDS011;2662;51.194;6.614;2022-12-19T06:26:22;48.53;;;18.77;;
5277;SDS011;2662;51.194;6.614;2022-12-19T06:28:50;54.70;;;18.63;;
5277;SDS011;2662;51.194;6.614;2022-12-19T06:31:18;47.20;;;18.20;;
5277;SDS011;2662;51.194;6.614;2022-12-19T06:33:46;62.50;;;18.37;;
5277;SDS011;2662;51.194;6.614;2022-12-19T06:36:14;50.13;;;17.37;;
5277;SDS011;2662;51.194;6.614;2022-12-19T06:38:44;42.40;;;16.70;;
5277;SDS011;2662;51.194;6.614;2022-12-19T06:41:11;53.80;;;18.00;;
5277;SDS011;2662;51.194;6.614;2022-12-19T06:43:56;37.80;;;16.70;;
5277;SDS011;2662;51.194;6.614;2022-12-19T06:46:23;44.63;;;17.13;;
5277;SDS011;2662;51.194;6.614;2022-12-19T06:48:51;42.50;;;16.10;;
5277;SDS011;2662;51.194;6.614;2022-12-19T06:51:18;47.33;;;17.27;;
5277;SDS011;2662;51.194;6.614;2022-12-19T06:53:45;44.60;;;17.37;;
5277;SDS011;2662;51.194;6.614;2022-12-19T06:56:12;35.10;;;15.87;;
5277;SDS011;2662;51.194;6.614;2022-12-19T06:58:40;40.20;;;17.80;;
5277;SDS011;2662;51.194;6.614;2022-12-19T07:01:11;57.73;;;17.53;;
5277;SDS011;2662;51.194;6.614;2022-12-19T07:03:41;37.67;;;15.60;;
5277;SDS011;2662;51.194;6.614;2022-12-19T07:06:10;43.03;;;15.97;;
5277;SDS011;2662;51.194;6.614;2022-12-19T07:08:37;40.37;;;14.70;;
5277;SDS011;2662;51.194;6.614;2022-12-19T07:11:03;47.43;;;16.87;;
5277;SDS011;2662;51.194;6.614;2022-12-19T07:13:30;39.60;;;16.40;;
5277;SDS011;2662;51.194;6.614;2022-12-19T07:16:01;39.93;;;16.73;;
5277;SDS011;2662;51.194;6.614;2022-12-19T07:18:29;34.97;;;16.00;;
5277;SDS011;2662;51.194;6.614;2022-12-19T07:20:59;43.83;;;16.33;;
5277;SDS011;2662;51.194;6.614;2022-12-19T07:23:27;42.80;;;17.70;;
5277;SDS011;2662;51.194;6.614;2022-12-19T07:25:54;40.33;;;16.37;;
5277;SDS011;2662;51.194;6.614;2022-12-19T07:28:22;36.67;;;15.53;;
5277;SDS011;2662;51.194;6.614;2022-12-19T07:30:48;40.93;;;16.70;;
5277;SDS011;2662;51.194;6.614;2022-12-19T07:33:15;37.37;;;15.00;;
5277;SDS011;2662;51.194;6.614;2022-12-19T07:35:42;46.67;;;16.60;;
5277;SDS011;2662;51.194;6.614;2022-12-19T07:38:08;37.50;;;16.67;;
5277;SDS011;2662;51.194;6.614;2022-12-19T07:40:36;43.20;;;17.00;;
5277;SDS011;2662;51.194;6.614;2022-12-19T07:43:04;44.40;;;17.30;;
5277;SDS011;2662;51.194;6.614;2022-12-19T07:45:32;39.30;;;15.90;;
5277;SDS011;2662;51.194;6.614;2022-12-19T07:47:59;37.37;;;16.13;;
5277;SDS011;2662;51.194;6.614;2022-12-19T07:50:26;35.57;;;15.30;;
5277;SDS011;2662;51.194;6.614;2022-12-19T07:52:53;37.33;;;15.53;;
5277;SDS011;2662;51.194;6.614;2022-12-19T07:55:20;36.83;;;16.63;;
5277;SDS011;2662;51.194;6.614;2022-12-19T07:57:48;36.70;;;15.20;;
5277;SDS011;2662;51.194;6.614;2022-12-19T08:00:15;36.83;;;15.87;;
5277;SDS011;2662;51.194;6.614;2022-12-19T08:02:42;34.63;;;15.60;;
5277;SDS011;2662;51.194;6.614;2022-12-19T08:05:09;37.80;;;15.93;;
5277;SDS011;2662;51.194;6.614;2022-12-19T08:07:36;38.67;;;15.70;;
5277;SDS011;2662;51.194;6.614;2022-12-19T08:10:03;37.70;;;15.60;;
5277;SDS011;2662;51.194;6.614;2022-12-19T08:12:31;36.00;;;15.70;;
5277;SDS011;2662;51.194;6.614;2022-12-19T08:15:00;38.67;;;15.50;;
5277;SDS011;2662;51.194;6.614;2022-12-19T08:17:26;29.23;;;13.73;;
5277;SDS011;2662;51.194;6.614;2022-12-19T08:19:53;41.80;;;15.00;;
5277;SDS011;2662;51.194;6.614;2022-12-19T08:22:20;31.50;;;13.47;;
5277;SDS011;2662;51.194;6.614;2022-12-19T08:24:47;39.80;;;14.53;;
5277;SDS011;2662;51.194;6.614;2022-12-19T08:27:14;33.23;;;14.13;;
5277;SDS011;2662;51.194;6.614;2022-12-19T08:29:41;31.07;;;14.13;;
5277;SDS011;2662;51.194;6.614;2022-12-19T08:32:09;35.00;;;15.10;;
5277;SDS011;2662;51.194;6.614;2022-12-19T08:34:36;33.57;;;16.20;;
5277;SDS011;2662;51.194;6.614;2022-12-19T08:37:03;38.10;;;16.00;;
5277;SDS011;2662;51.194;6.614;2022-12-19T08:39:29;41.40;;;15.73;;
5277;SDS011;2662;51.194;6.614;2022-12-19T08:41:56;40.93;;;15.50;;
5277;SDS011;2662;51.194;6.614;2022-12-19T08:44:23;40.60;;;15.30;;
5277;SDS011;2662;51.194;6.614;2022-12-19T08:46:50;33.87;;;15.13;;
5277;SDS011;2662;51.194;6.614;2022-12-19T08:49:18;37.67;;;14.27;;
5277;SDS011;2662;51.194;6.614;2022-12-19T08:51:45;32.70;;;14.23;;
5277;SDS011;2662;51.194;6.614;2022-12-19T08:54:11;40.03;;;14.80;;
5277;SDS011;2662;51.194;6.614;2022-12-19T08:56:39;32.93;;;14.30;;
5277;SDS011;2662;51.194;6.614;2022-12-19T08:59:05;37.90;;;16.20;;
5277;SDS011;2662;51.194;6.614;2022-12-19T09:01:32;35.97;;;16.97;;
5277;SDS011;2662;51.194;6.614;2022-12-19T09:03:59;37.93;;;15.57;;
5277;SDS011;2662;51.194;6.614;2022-12-19T09:06:27;43.03;;;15.13;;
5277;SDS011;2662;51.194;6.614;2022-12-19T09:08:54;32.40;;;16.10;;
5277;SDS011;2662;51.194;6.614;2022-12-19T09:11:21;36.23;;;15.90;;
5277;SDS011;2662;51.194;6.614;2022-12-19T09:13:48;39.23;;;16.80;;
5277;SDS011;2662;51.194;6.614;2022-12-19T09:16:16;37.60;;;16.47;;
5277;SDS011;2662;51.194;6.614;2022-12-19T09:18:45;38.43;;;15.67;;
5277;SDS011;2662;51.194;6.614;2022-12-19T09:21:13;32.83;;;15.40;;
5277;SDS011;2662;51.194;6.614;2022-12-19T09:23:41;32.70;;;15.80;;
5277;SDS011;2662;51.194;6.614;2022-12-19T09:26:09;30.80;;;14.73;;
5277;SDS011;2662;51.194;6.614;2022-12-19T09:28:37;45.13;;;16.17;;
5277;SDS011;2662;51.194;6.614;2022-12-19T09:31:06;31.60;;;14.90;;
5277;SDS011;2662;51.194;6.614;2022-12-19T09:33:35;31.23;;;15.70;;
5277;SDS011;2662;51.194;6.614;2022-12-19T09:36:03;28.80;;;14.90;;
5277;SDS011;2662;51.194;6.614;2022-12-19T09:38:32;36.83;;;15.20;;
5277;SDS011;2662;51.194;6.614;2022-12-19T09:41:05;34.53;;;15.20;;
5277;SDS011;2662;51.194;6.614;2022-12-19T09:43:50;37.53;;;15.77;;
5277;SDS011;2662;51.194;6.614;2022-12-19T09:46:26;33.37;;;15.70;;
5277;SDS011;2662;51.194;6.614;2022-12-19T09:49:00;35.40;;;14.47;;
5277;SDS011;2662;51.194;6.614;2022-12-19T09:51:30;36.13;;;16.60;;
5277;SDS011;2662;51.194;6.614;2022-12-19T09:54:01;28.97;;;14.20;;
5277;SDS011;2662;51.194;6.614;2022-12-19T09:56:37;45.63;;;14.77;;
5277;SDS011;2662;51.194;6.614;2022-12-19T09:59:07;35.80;;;15.37;;
5277;SDS011;2662;51.194;6.614;2022-12-19T10:01:43;30.20;;;14.60;;
5277;SDS011;2662;51.194;6.614;2022-12-19T10:04:18;34.63;;;14.13;;
5277;SDS011;2662;51.194;6.614;2022-12-19T10:06:46;40.13;;;15.43;;
5277;SDS011;2662;51.194;6.614;2022-12-19T10:09:14;29.93;;;14.43;;
5277;SDS011;2662;51.194;6.614;2022-12-19T10:11:48;28.50;;;13.83;;
5277;SDS011;2662;51.194;6.614;2022-12-19T10:14:30;28.57;;;14.40;;
5277;SDS011;2662;51.194;6.614;2022-12-19T10:17:09;31.67;;;14.40;;
5277;SDS011;2662;51.194;6.614;2022-12-19T10:19:44;34.13;;;14.73;;
5277;SDS011;2662;51.194;6.614;2022-12-19T10:22:26;31.50;;;13.77;;
5277;SDS011;2662;51.194;6.614;2022-12-19T10:25:07;30.47;;;14.47;;
5277;SDS011;2662;51.194;6.614;2022-12-19T10:27:45;37.90;;;15.97;;
5277;SDS011;2662;51.194;6.614;2022-12-19T10:30:16;32.77;;;14.43;;
5277;SDS011;2662;51.194;6.614;2022-12-19T10:32:51;28.33;;;13.90;;
5277;SDS011;2662;51.194;6.614;2022-12-19T10:35:27;34.30;;;14.73;;
5277;SDS011;2662;51.194;6.614;2022-12-19T10:37:59;29.57;;;15.03;;
5277;SDS011;2662;51.194;6.614;2022-12-19T10:40:40;27.40;;;14.77;;
5277;SDS011;2662;51.194;6.614;2022-12-19T10:43:11;27.53;;;14.43;;
5277;SDS011;2662;51.194;6.614;2022-12-19T10:45:44;30.87;;;16.17;;
5277;SDS011;2662;51.194;6.614;2022-12-19T10:48:15;31.73;;;15.27;;
5277;SDS011;2662;51.194;6.614;2022-12-19T10:50:43;28.40;;;13.70;;
5277;SDS011;2662;51.194;6.614;2022-12-19T10:53:10;28.10;;;14.50;;
5277;SDS011;2662;51.194;6.614;2022-12-19T10:55:40;32.03;;;14.30;;
5277;SDS011;2662;51.194;6.614;2022-12-19T10:58:13;33.60;;;14.90;;
5277;SDS011;2662;51.194;6.614;2022-12-19T11:03:37;32.10;;;14.80;;
5277;SDS011;2662;51.194;6.614;2022-12-19T11:06:05;29.50;;;14.00;;
5277;SDS011;2662;51.194;6.614;2022-12-19T11:09:17;30.60;;;13.63;;
5277;SDS011;2662;51.194;6.614;2022-12-19T11:11:47;33.00;;;13.90;;
5277;SDS011;2662;51.194;6.614;2022-12-19T11:14:22;33.27;;;13.73;;
5277;SDS011;2662;51.194;6.614;2022-12-19T11:16:51;24.83;;;13.30;;
5277;SDS011;2662;51.194;6.614;2022-12-19T11:19:18;26.80;;;13.43;;
5277;SDS011;2662;51.194;6.614;2022-12-19T11:21:46;31.53;;;14.77;;
5277;SDS011;2662;51.194;6.614;2022-12-19T11:24:16;26.40;;;14.20;;
5277;SDS011;2662;51.194;6.614;2022-12-19T11:26:48;31.20;;;14.07;;
5277;SDS011;2662;51.194;6.614;2022-12-19T11:29:17;33.90;;;14.20;;
5277;SDS011;2662;51.194;6.614;2022-12-19T11:31:52;29.43;;;13.20;;
5277;SDS011;2662;51.194;6.614;2022-12-19T11:34:22;30.07;;;13.57;;
5277;SDS011;2662;51.194;6.614;2022-12-19T11:36:51;31.57;;;13.77;;
5277;SDS011;2662;51.194;6.614;2022-12-19T11:39:21;30.83;;;14.73;;
5277;SDS011;2662;51.194;6.614;2022-12-19T11:41:57;29.20;;;14.97;;
5277;SDS011;2662;51.194;6.614;2022-12-19T11:44:31;27.70;;;13.90;;
5277;SDS011;2662;51.194;6.614;2022-12-19T11:47:04;28.77;;;12.53;;
5277;SDS011;2662;51.194;6.614;2022-12-19T11:49:43;23.83;;;13.30;;
5277;SDS011;2662;51.194;6.614;2022-12-19T11:52:17;29.43;;;13.67;;
5277;SDS011;2662;51.194;6.614;2022-12-19T11:54:52;29.20;;;14.40;;
5277;SDS011;2662;51.194;6.614;2022-12-19T11:57:22;27.87;;;13.20;;
5277;SDS011;2662;51.194;6.614;2022-12-19T11:59:50;28.90;;;14.13;;
5277;SDS011;2662;51.194;6.614;2022-12-19T12:02:27;27.80;;;14.10;;
5277;SDS011;2662;51.194;6.614;2022-12-19T12:05:21;29.70;;;14.20;;
5277;SDS011;2662;51.194;6.614;2022-12-19T12:08:01;29.17;;;12.37;;
5277;SDS011;2662;51.194;6.614;2022-12-19T12:10:53;27.77;;;13.43;;
5277;SDS011;2662;51.194;6.614;2022-12-19T12:13:26;27.17;;;13.03;;
5277;SDS011;2662;51.194;6.614;2022-12-19T12:16:00;27.23;;;14.10;;
5277;SDS011;2662;51.194;6.614;2022-12-19T12:18:39;26.90;;;13.30;;
5277;SDS011;2662;51.194;6.614;2022-12-19T12:21:18;23.47;;;12.77;;
5277;SDS011;2662;51.194;6.614;2022-12-19T12:23:53;28.30;;;13.77;;
5277;SDS011;2662;51.194;6.614;2022-12-19T12:26:32;27.93;;;13.87;;
5277;SDS011;2662;51.194;6.614;2022-12-19T12:29:03;25.50;;;13.43;;
5277;SDS011;2662;51.194;6.614;2022-12-19T12:31:42;28.33;;;12.40;;
5277;SDS011;2662;51.194;6.614;2022-12-19T12:34:30;29.87;;;13.47;;
5277;SDS011;2662;51.194;6.614;2022-12-19T12:37:14;29.27;;;13.30;;
5277;SDS011;2662;51.194;6.614;2022-12-19T12:39:53;23.97;;;12.40;;
5277;SDS011;2662;51.194;6.614;2022-12-19T12:42:35;24.07;;;12.93;;
5277;SDS011;2662;51.194;6.614;2022-12-19T12:45:16;26.80;;;12.37;;
5277;SDS011;2662;51.194;6.614;2022-12-19T12:47:45;27.00;;;11.63;;
5277;SDS011;2662;51.194;6.614;2022-12-19T12:50:15;21.97;;;12.50;;
5277;SDS011;2662;51.194;6.614;2022-12-19T12:52:44;27.87;;;12.20;;
5277;SDS011;2662;51.194;6.614;2022-12-19T12:55:14;30.87;;;13.00;;
5277;SDS011;2662;51.194;6.614;2022-12-19T12:57:49;23.80;;;12.03;;
5277;SDS011;2662;51.194;6.614;2022-12-19T13:00:17;34.90;;;13.10;;
5277;SDS011;2662;51.194;6.614;2022-12-19T13:02:52;23.53;;;12.10;;
5277;SDS011;2662;51.194;6.614;2022-12-19T13:08:27;28.10;;;13.80;;
5277;SDS011;2662;51.194;6.614;2022-12-19T13:10:59;23.93;;;12.10;;
5277;SDS011;2662;51.194;6.614;2022-12-19T13:13:46;24.10;;;12.17;;
5277;SDS011;2662;51.194;6.614;2022-12-19T13:19:15;20.60;;;11.10;;
5277;SDS011;2662;51.194;6.614;2022-12-19T13:24:42;18.83;;;11.23;;
5277;SDS011;2662;51.194;6.614;2022-12-19T13:30:11;20.73;;;11.43;;
5277;SDS011;2662;51.194;6.614;2022-12-19T13:35:33;22.53;;;12.03;;
5277;SDS011;2662;51.194;6.614;2022-12-19T13:38:02;25.17;;;12.10;;
5277;SDS011;2662;51.194;6.614;2022-12-19T13:40:53;26.83;;;11.90;;
5277;SDS011;2662;51.194;6.614;2022-12-19T13:43:30;21.47;;;10.80;;
5277;SDS011;2662;51.194;6.614;2022-12-19T13:46:35;22.43;;;11.30;;
5277;SDS011;2662;51.194;6.614;2022-12-19T13:49:05;23.80;;;12.00;;
5277;SDS011;2662;51.194;6.614;2022-12-19T13:51:40;26.43;;;12.57;;
5277;SDS011;2662;51.194;6.614;2022-12-19T13:54:19;19.47;;;10.67;;
5277;SDS011;2662;51.194;6.614;2022-12-19T13:56:47;22.50;;;11.57;;
5277;SDS011;2662;51.194;6.614;2022-12-19T13:59:14;23.70;;;11.33;;
5277;SDS011;2662;51.194;6.614;2022-12-19T14:01:41;29.43;;;11.40;;
5277;SDS011;2662;51.194;6.614;2022-12-19T14:04:09;24.23;;;11.80;;
5277;SDS011;2662;51.194;6.614;2022-12-19T14:06:39;21.33;;;11.77;;
5277;SDS011;2662;51.194;6.614;2022-12-19T14:09:14;20.50;;;11.50;;
5277;SDS011;2662;51.194;6.614;2022-12-19T14:11:48;19.23;;;10.40;;
5277;SDS011;2662;51.194;6.614;2022-12-19T14:14:17;22.43;;;11.03;;
5277;SDS011;2662;51.194;6.614;2022-12-19T14:17:04;21.33;;;10.40;;
5277;SDS011;2662;51.194;6.614;2022-12-19T14:19:36;20.90;;;10.27;;
5277;SDS011;2662;51.194;6.614;2022-12-19T14:22:09;23.47;;;10.77;;
5277;SDS011;2662;51.194;6.614;2022-12-19T14:24:37;26.20;;;10.93;;
5277;SDS011;2662;51.194;6.614;2022-12-19T14:27:05;17.80;;;9.57;;
5277;SDS011;2662;51.194;6.614;2022-12-19T14:29:40;20.60;;;11.00;;
5277;SDS011;2662;51.194;6.614;2022-12-19T14:32:12;18.20;;;10.70;;
5277;SDS011;2662;51.194;6.614;2022-12-19T14:34:40;22.27;;;10.53;;
5277;SDS011;2662;51.194;6.614;2022-12-19T14:37:21;21.73;;;10.67;;
5277;SDS011;2662;51.194;6.614;2022-12-19T14:39:57;19.70;;;10.53;;
5277;SDS011;2662;51.194;6.614;2022-12-19T14:42:25;28.50;;;11.03;;
5277;SDS011;2662;51.194;6.614;2022-12-19T14:45:33;21.67;;;10.23;;
5277;SDS011;2662;51.194;6.614;2022-12-19T14:48:22;21.33;;;10.57;;
5277;SDS011;2662;51.194;6.614;2022-12-19T14:51:03;19.47;;;9.93;;
5277;SDS011;2662;51.194;6.614;2022-12-19T14:53:35;25.63;;;10.80;;
5277;SDS011;2662;51.194;6.614;2022-12-19T14:56:03;19.07;;;10.33;;
5277;SDS011;2662;51.194;6.614;2022-12-19T14:58:33;20.03;;;10.10;;
5277;SDS011;2662;51.194;6.614;2022-12-19T15:01:02;17.77;;;9.13;;
5277;SDS011;2662;51.194;6.614;2022-12-19T15:03:33;17.07;;;9.50;;
5277;SDS011;2662;51.194;6.614;2022-12-19T15:06:05;16.83;;;9.23;;
5277;SDS011;2662;51.194;6.614;2022-12-19T15:08:39;25.90;;;10.73;;
5277;SDS011;2662;51.194;6.614;2022-12-19T15:11:06;27.20;;;11.17;;
5277;SDS011;2662;51.194;6.614;2022-12-19T15:13:51;22.87;;;11.00;;
5277;SDS011;2662;51.194;6.614;2022-12-19T15:16:23;19.67;;;9.33;;
5277;SDS011;2662;51.194;6.614;2022-12-19T15:18:54;19.57;;;10.03;;
5277;SDS011;2662;51.194;6.614;2022-12-19T15:21:21;21.13;;;9.90;;
5277;SDS011;2662;51.194;6.614;2022-12-19T15:23:49;16.10;;;8.17;;
5277;SDS011;2662;51.194;6.614;2022-12-19T15:26:16;16.43;;;8.63;;
5277;SDS011;2662;51.194;6.614;2022-12-19T15:28:45;16.67;;;8.80;;